createdAt,value
2023-03-27T00:00:01.474Z,8.00
2023-03-27T00:01:03.347Z,5.93
2023-03-27T00:02:06.339Z,5.00
2023-03-27T00:03:10.212Z,7.65
2023-03-27T00:04:13.260Z,6.15
2023-03-27T00:05:20.864Z,7.30
2023-03-27T00:06:24.867Z,6.18
2023-03-27T00:07:27.331Z,5.70
2023-03-27T00:08:29.990Z,7.68
2023-03-27T00:09:32.726Z,5.22
2023-03-27T00:10:34.838Z,5.25
2023-03-27T00:11:37.030Z,7.00
2023-03-27T00:12:39.295Z,5.82
2023-03-27T00:13:48.895Z,5.05
2023-03-27T00:14:52.643Z,5.25
2023-03-27T00:15:57.051Z,8.07
2023-03-27T00:17:00.274Z,4.75
2023-03-27T00:18:04.227Z,3.87
2023-03-27T00:19:06.571Z,6.75
2023-03-27T00:20:08.739Z,5.75
2023-03-27T00:21:10.610Z,5.40
2023-03-27T00:22:12.877Z,6.75
2023-03-27T00:23:15.372Z,5.90
2023-03-27T00:24:17.310Z,8.18
2023-03-27T00:25:19.809Z,8.40
2023-03-27T00:26:22.139Z,9.02
2023-03-27T00:27:25.111Z,6.37
2023-03-27T00:28:29.373Z,7.12
2023-03-27T00:29:31.311Z,5.80
2023-03-27T00:30:33.717Z,4.82
2023-03-27T00:31:35.714Z,5.37
2023-03-27T00:32:37.614Z,5.80
2023-03-27T00:33:40.811Z,5.30
2023-03-27T00:34:42.655Z,5.70
2023-03-27T00:35:46.836Z,6.50
2023-03-27T00:36:51.222Z,6.05
2023-03-27T00:37:53.870Z,5.65
2023-03-27T00:38:56.097Z,6.05
2023-03-27T00:39:58.281Z,4.03
2023-03-27T00:41:00.580Z,5.22
2023-03-27T00:42:03.440Z,6.28
2023-03-27T00:43:29.099Z,9.18
2023-03-27T00:44:35.522Z,8.23
2023-03-27T00:45:38.582Z,7.57
2023-03-27T00:46:45.221Z,5.43
2023-03-27T00:47:54.223Z,5.12
2023-03-27T00:49:01.551Z,6.65
2023-03-27T00:50:08.834Z,6.62
2023-03-27T00:51:10.850Z,11.55
2023-03-27T00:52:13.694Z,4.10
2023-03-27T00:53:22.575Z,5.80
2023-03-27T00:54:30.024Z,5.70
2023-03-27T00:55:36.376Z,7.50
2023-03-27T00:56:38.934Z,5.35
2023-03-27T00:57:44.675Z,5.60
2023-03-27T00:58:56.903Z,6.18
2023-03-27T01:00:02.291Z,6.45
2023-03-27T01:01:07.944Z,7.97
2023-03-27T01:02:10.203Z,10.13
2023-03-27T01:03:12.521Z,10.88
2023-03-27T01:04:14.694Z,6.78
2023-03-27T01:05:20.031Z,6.93
2023-03-27T01:06:23.455Z,7.25
2023-03-27T01:07:25.848Z,5.37
2023-03-27T01:08:30.676Z,7.30
2023-03-27T01:09:33.536Z,9.00
2023-03-27T01:10:53.808Z,4.87
2023-03-27T01:11:56.123Z,5.95
2023-03-27T01:13:33.333Z,4.57
2023-03-27T01:15:20.207Z,5.37
2023-03-27T01:16:40.962Z,7.20
2023-03-27T01:17:57.847Z,4.78
2023-03-27T01:19:11.661Z,5.37
2023-03-27T01:20:32.566Z,7.07
2023-03-27T01:21:48.192Z,6.27
2023-03-27T01:23:06.242Z,5.95
2023-03-27T01:24:42.577Z,4.50
2023-03-27T01:26:00.711Z,4.68
2023-03-27T01:27:11.136Z,5.43
2023-03-27T01:28:29.052Z,7.82
2023-03-27T01:29:48.376Z,4.35
2023-03-27T01:30:52.464Z,6.47
2023-03-27T01:32:02.100Z,5.45
2023-03-27T01:33:28.385Z,5.55
2023-03-27T01:35:01.826Z,5.43
2023-03-27T01:36:11.650Z,4.47
2023-03-27T01:37:42.284Z,6.37
2023-03-27T01:39:11.631Z,5.95
2023-03-27T01:40:21.787Z,8.02
2023-03-27T01:41:26.851Z,5.15
2023-03-27T01:42:35.085Z,4.75
2023-03-27T01:43:46.073Z,5.47
2023-03-27T01:45:09.530Z,6.05
2023-03-27T01:46:27.006Z,6.72
2023-03-27T01:47:36.990Z,15.93
2023-03-27T01:48:44.812Z,15.60
2023-03-27T01:49:57.273Z,9.07
2023-03-27T01:51:09.866Z,11.40
2023-03-27T01:52:21.104Z,6.12
2023-03-27T01:53:28.830Z,11.32
2023-03-27T01:54:36.009Z,73.75
2023-03-27T01:55:44.324Z,38.70
2023-03-27T01:56:54.607Z,23.60
2023-03-27T01:58:07.553Z,27.05
2023-03-27T01:59:18.885Z,12.55
2023-03-27T02:00:24.351Z,10.48
2023-03-27T02:01:42.264Z,7.05
2023-03-27T02:03:08.040Z,8.00
2023-03-27T02:04:20.677Z,7.80
2023-03-27T02:05:28.724Z,5.45
2023-03-27T02:06:37.903Z,6.80
2023-03-27T02:07:47.484Z,5.28
2023-03-27T02:09:06.925Z,6.25
2023-03-27T02:10:15.454Z,7.05
2023-03-27T02:11:18.191Z,10.10
2023-03-27T02:12:32.071Z,5.47
2023-03-27T02:13:52.252Z,7.68
2023-03-27T02:15:23.628Z,7.62
2023-03-27T02:16:34.348Z,6.57
2023-03-27T02:17:43.185Z,6.47
2023-03-27T02:18:54.383Z,5.93
2023-03-27T02:20:16.322Z,7.60
2023-03-27T02:21:18.529Z,8.27
2023-03-27T02:22:20.898Z,6.25
2023-03-27T02:23:40.581Z,6.47
2023-03-27T02:24:46.351Z,6.07
2023-03-27T02:25:48.549Z,7.15
2023-03-27T02:26:59.803Z,8.65
2023-03-27T02:28:15.476Z,7.62
2023-03-27T02:29:36.312Z,6.60
2023-03-27T02:31:32.170Z,8.57
2023-03-27T02:33:14.916Z,8.65
2023-03-27T02:34:26.498Z,8.23
2023-03-27T02:35:57.247Z,9.68
2023-03-27T02:37:32.357Z,7.62
2023-03-27T02:38:45.208Z,7.40
2023-03-27T02:40:18.769Z,6.82
2023-03-27T02:41:36.522Z,6.28
2023-03-27T02:42:46.433Z,6.40
2023-03-27T02:44:06.372Z,5.90
2023-03-27T02:45:26.637Z,6.15
2023-03-27T02:46:42.926Z,8.70
2023-03-27T02:48:08.428Z,8.48
2023-03-27T02:49:17.341Z,8.07
2023-03-27T02:50:26.507Z,6.82
2023-03-27T02:51:40.421Z,6.37
2023-03-27T02:52:48.065Z,8.48
2023-03-27T02:53:59.462Z,7.03
2023-03-27T02:55:06.874Z,7.40
2023-03-27T02:56:12.003Z,7.18
2023-03-27T02:57:20.539Z,11.45
2023-03-27T02:58:30.718Z,11.52
2023-03-27T02:59:39.444Z,12.10
2023-03-27T03:00:48.981Z,10.90
2023-03-27T03:01:53.011Z,9.02
2023-03-27T03:03:09.098Z,8.35
2023-03-27T03:04:24.558Z,8.07
2023-03-27T03:05:28.508Z,9.82
2023-03-27T03:06:30.846Z,11.75
2023-03-27T03:07:34.779Z,7.78
2023-03-27T03:08:41.077Z,8.18
2023-03-27T03:09:44.605Z,8.80
2023-03-27T03:10:47.719Z,7.37
2023-03-27T03:11:52.621Z,8.95
2023-03-27T03:12:55.018Z,9.45
2023-03-27T03:13:57.361Z,9.90
2023-03-27T03:14:59.278Z,8.70
2023-03-27T03:16:01.239Z,12.68
2023-03-27T03:17:03.514Z,9.73
2023-03-27T03:18:07.273Z,10.40
2023-03-27T03:19:09.353Z,10.35
2023-03-27T03:20:13.036Z,8.05
2023-03-27T03:21:15.385Z,10.32
2023-03-27T03:22:17.276Z,8.13
2023-03-27T03:23:22.561Z,8.88
2023-03-27T03:24:25.026Z,9.02
2023-03-27T03:25:27.040Z,8.45
2023-03-27T03:26:30.064Z,8.52
2023-03-27T03:27:34.122Z,8.77
2023-03-27T03:28:36.722Z,8.85
2023-03-27T03:29:38.584Z,8.60
2023-03-27T03:30:43.369Z,7.85
2023-03-27T03:31:45.779Z,8.00
2023-03-27T03:32:47.840Z,12.70
2023-03-27T03:33:50.653Z,10.13
2023-03-27T03:34:52.657Z,9.25
2023-03-27T03:35:54.896Z,8.18
2023-03-27T03:36:58.175Z,7.05
2023-03-27T03:38:03.886Z,7.90
2023-03-27T03:39:09.966Z,8.15
2023-03-27T03:40:12.153Z,8.35
2023-03-27T03:41:14.597Z,9.88
2023-03-27T03:42:22.354Z,7.68
2023-03-27T03:43:28.154Z,7.80
2023-03-27T03:44:32.876Z,8.32
2023-03-27T03:45:35.370Z,9.32
2023-03-27T03:46:37.301Z,6.70
2023-03-27T03:47:39.343Z,6.30
2023-03-27T03:48:41.616Z,9.82
2023-03-27T03:49:43.869Z,6.30
2023-03-27T03:50:47.075Z,7.95
2023-03-27T03:52:03.765Z,9.88
2023-03-27T03:53:07.242Z,7.78
2023-03-27T03:54:09.387Z,7.78
2023-03-27T03:55:12.159Z,7.28
2023-03-27T03:56:15.068Z,9.57
2023-03-27T03:57:18.499Z,7.45
2023-03-27T03:58:34.604Z,8.25
2023-03-27T03:59:39.211Z,7.40
2023-03-27T04:00:43.780Z,7.10
2023-03-27T04:01:46.622Z,7.62
2023-03-27T04:02:58.146Z,7.43
2023-03-27T04:04:00.292Z,8.43
2023-03-27T04:05:09.094Z,6.00
2023-03-27T04:06:14.093Z,7.10
2023-03-27T04:07:17.735Z,6.22
2023-03-27T04:08:20.245Z,6.57
2023-03-27T04:09:22.562Z,5.03
2023-03-27T04:10:26.897Z,6.57
2023-03-27T04:11:29.000Z,6.55
2023-03-27T04:12:32.551Z,7.93
2023-03-27T04:13:34.769Z,7.97
2023-03-27T04:14:45.276Z,6.37
2023-03-27T04:15:48.565Z,5.50
2023-03-27T04:16:50.837Z,6.10
2023-03-27T04:17:53.824Z,7.20
2023-03-27T04:18:55.877Z,14.00
2023-03-27T04:19:58.077Z,7.35
2023-03-27T04:21:00.123Z,6.75
2023-03-27T04:22:02.598Z,7.25
2023-03-27T04:23:05.640Z,6.87
2023-03-27T04:24:09.753Z,6.37
2023-03-27T04:25:17.447Z,6.37
2023-03-27T04:26:26.405Z,6.30
2023-03-27T04:27:37.695Z,6.87
2023-03-27T04:28:42.180Z,7.05
2023-03-27T04:29:47.376Z,5.62
2023-03-27T04:31:06.487Z,7.07
2023-03-27T04:32:19.268Z,8.23
2023-03-27T04:33:24.261Z,8.25
2023-03-27T04:34:27.662Z,6.93
2023-03-27T04:35:37.262Z,5.60
2023-03-27T04:36:39.774Z,7.62
2023-03-27T04:37:43.048Z,5.93
2023-03-27T04:38:45.698Z,4.93
2023-03-27T04:39:49.834Z,4.53
2023-03-27T04:40:54.700Z,4.18
2023-03-27T04:41:58.379Z,5.80
2023-03-27T04:43:05.321Z,3.95
2023-03-27T04:44:07.541Z,4.50
2023-03-27T04:45:17.314Z,3.80
2023-03-27T04:46:20.171Z,3.78
2023-03-27T04:47:28.200Z,4.03
2023-03-27T04:48:34.520Z,3.28
2023-03-27T04:49:40.694Z,3.78
2023-03-27T04:50:49.307Z,2.45
2023-03-27T04:51:56.830Z,7.18
2023-03-27T04:53:03.088Z,2.17
2023-03-27T04:54:09.036Z,3.67
2023-03-27T04:55:16.800Z,1.65
2023-03-27T04:56:22.899Z,3.33
2023-03-27T04:57:30.974Z,3.62
2023-03-27T04:58:35.959Z,3.05
2023-03-27T04:59:42.140Z,2.37
2023-03-27T05:00:50.322Z,2.35
2023-03-27T05:01:55.428Z,4.85
2023-03-27T05:02:57.751Z,7.12
2023-03-27T05:04:02.508Z,3.47
2023-03-27T05:05:05.880Z,2.45
2023-03-27T05:06:08.572Z,3.62
2023-03-27T05:07:12.352Z,2.17
2023-03-27T05:08:14.341Z,2.78
2023-03-27T05:09:17.979Z,2.67
2023-03-27T05:10:21.843Z,3.65
2023-03-27T05:11:24.539Z,4.95
2023-03-27T05:12:27.972Z,2.78
2023-03-27T05:13:31.586Z,5.45
2023-03-27T05:14:33.746Z,4.47
2023-03-27T05:15:35.657Z,5.15
2023-03-27T05:16:38.452Z,4.75
2023-03-27T05:17:43.192Z,5.75
2023-03-27T05:18:45.232Z,3.97
2023-03-27T05:19:47.226Z,4.32
2023-03-27T05:20:50.107Z,4.87
2023-03-27T05:21:52.572Z,3.30
2023-03-27T05:22:56.385Z,3.28
2023-03-27T05:23:58.804Z,3.15
2023-03-27T05:25:01.574Z,4.07
2023-03-27T05:26:03.687Z,4.57
2023-03-27T05:27:17.297Z,4.15
2023-03-27T05:28:20.908Z,3.10
2023-03-27T05:29:22.837Z,2.42
2023-03-27T05:30:30.629Z,4.50
2023-03-27T05:31:35.066Z,3.97
2023-03-27T05:32:38.706Z,4.12
2023-03-27T05:33:41.757Z,3.92
2023-03-27T05:34:45.928Z,5.47
2023-03-27T05:35:52.571Z,3.83
2023-03-27T05:36:55.732Z,4.18
2023-03-27T05:37:59.080Z,3.17
2023-03-27T05:39:04.622Z,3.33
2023-03-27T05:40:07.886Z,6.87
2023-03-27T05:41:10.354Z,2.00
2023-03-27T05:42:16.834Z,2.58
2023-03-27T05:43:18.722Z,4.68
2023-03-27T05:44:21.287Z,4.05
2023-03-27T05:45:24.225Z,6.95
2023-03-27T05:46:26.174Z,2.97
2023-03-27T05:47:28.723Z,2.08
2023-03-27T05:48:31.033Z,2.87
2023-03-27T05:49:34.325Z,3.25
2023-03-27T05:50:41.687Z,3.70
2023-03-27T05:51:47.884Z,2.80
2023-03-27T05:52:58.327Z,2.17
2023-03-27T05:54:02.021Z,2.85
2023-03-27T05:55:08.233Z,2.72
2023-03-27T05:56:13.212Z,3.62
2023-03-27T05:57:17.090Z,2.67
2023-03-27T05:58:19.214Z,1.90
2023-03-27T05:59:22.100Z,3.67
2023-03-27T06:00:26.545Z,2.67
2023-03-27T06:01:29.230Z,2.65
2023-03-27T06:02:31.760Z,3.08
2023-03-27T06:03:38.514Z,2.50
2023-03-27T06:04:41.517Z,2.05
2023-03-27T06:05:47.079Z,3.00
2023-03-27T06:06:49.883Z,2.92
2023-03-27T06:07:52.314Z,3.83
2023-03-27T06:08:54.332Z,4.28
2023-03-27T06:09:57.106Z,1.83
2023-03-27T06:11:11.458Z,4.60
2023-03-27T06:12:16.217Z,3.22
2023-03-27T06:13:18.636Z,3.95
2023-03-27T06:14:24.245Z,4.22
2023-03-27T06:15:30.289Z,3.70
2023-03-27T06:16:34.335Z,3.10
2023-03-27T06:17:42.408Z,4.70
2023-03-27T06:18:44.377Z,3.15
2023-03-27T06:19:47.093Z,3.22
2023-03-27T06:20:50.123Z,4.32
2023-03-27T06:21:52.360Z,5.20
2023-03-27T06:22:57.577Z,3.35
2023-03-27T06:24:00.868Z,2.85
2023-03-27T06:25:05.852Z,4.10
2023-03-27T06:26:09.364Z,2.53
2023-03-27T06:27:11.235Z,3.00
2023-03-27T06:28:14.932Z,3.72
2023-03-27T06:29:18.303Z,3.60
2023-03-27T06:30:23.014Z,3.05
2023-03-27T06:31:30.733Z,3.92
2023-03-27T06:32:37.106Z,3.17
2023-03-27T06:33:42.714Z,4.82
2023-03-27T06:34:50.837Z,4.60
2023-03-27T06:36:00.845Z,3.55
2023-03-27T06:37:03.677Z,3.03
2023-03-27T06:38:09.578Z,5.00
2023-03-27T06:39:13.517Z,5.43
2023-03-27T06:40:25.004Z,4.18
2023-03-27T06:41:27.122Z,2.67
2023-03-27T06:42:33.401Z,4.03
2023-03-27T06:43:35.532Z,5.80
2023-03-27T06:44:41.542Z,4.45
2023-03-27T06:45:46.641Z,5.10
2023-03-27T06:46:50.612Z,3.05
2023-03-27T06:48:13.824Z,3.22
2023-03-27T06:49:22.190Z,3.83
2023-03-27T06:50:26.201Z,6.47
2023-03-27T06:51:28.943Z,3.25
2023-03-27T06:52:31.229Z,4.03
2023-03-27T06:53:37.460Z,2.80
2023-03-27T06:54:40.453Z,3.80
2023-03-27T06:55:43.719Z,4.05
2023-03-27T06:56:46.565Z,3.30
2023-03-27T06:57:51.495Z,2.70
2023-03-27T06:58:53.569Z,4.85
2023-03-27T06:59:59.075Z,3.92
2023-03-27T07:01:13.427Z,4.82
2023-03-27T07:02:20.112Z,6.15
2023-03-27T07:03:23.340Z,4.47
2023-03-27T07:04:28.263Z,3.30
2023-03-27T07:05:36.775Z,4.28
2023-03-27T07:06:39.713Z,2.90
2023-03-27T07:07:43.050Z,2.83
2023-03-27T07:08:47.771Z,3.85
2023-03-27T07:09:51.461Z,6.90
2023-03-27T07:11:59.987Z,3.05
2023-03-27T07:13:02.173Z,3.92
2023-03-27T07:14:04.127Z,3.33
2023-03-27T07:15:07.900Z,3.40
2023-03-27T07:16:12.463Z,3.17
2023-03-27T07:17:14.824Z,4.80
2023-03-27T07:18:17.602Z,2.33
2023-03-27T07:19:23.243Z,5.60
2023-03-27T07:20:30.981Z,2.42
2023-03-27T07:21:33.568Z,3.05
2023-03-27T07:22:36.156Z,2.70
2023-03-27T07:23:38.795Z,4.43
2023-03-27T07:24:41.493Z,3.80
2023-03-27T07:25:43.808Z,3.92
2023-03-27T07:26:46.911Z,2.03
2023-03-27T07:27:49.064Z,3.03
2023-03-27T07:28:51.786Z,1.42
2023-03-27T07:29:54.423Z,3.47
2023-03-27T07:30:56.742Z,2.55
2023-03-27T07:32:01.517Z,3.17
2023-03-27T07:33:09.479Z,3.60
2023-03-27T07:34:11.953Z,2.40
2023-03-27T07:35:20.747Z,2.42
2023-03-27T07:36:26.558Z,4.65
2023-03-27T07:37:29.138Z,2.53
2023-03-27T07:38:33.237Z,3.65
2023-03-27T07:39:36.623Z,2.05
2023-03-27T07:40:40.467Z,2.83
2023-03-27T07:41:43.666Z,2.22
2023-03-27T07:42:49.223Z,4.32
2023-03-27T07:43:51.446Z,4.60
2023-03-27T07:44:57.414Z,6.28
2023-03-27T07:45:59.707Z,4.72
2023-03-27T07:47:02.134Z,6.45
2023-03-27T07:48:11.763Z,3.90
2023-03-27T07:49:14.169Z,6.25
2023-03-27T07:50:19.085Z,4.97
2023-03-27T07:51:22.700Z,6.03
2023-03-27T07:52:25.016Z,4.55
2023-03-27T07:53:32.819Z,6.37
2023-03-27T07:54:38.426Z,5.03
2023-03-27T07:55:42.007Z,7.40
2023-03-27T07:56:45.029Z,6.25
2023-03-27T07:57:59.776Z,5.97
2023-03-27T07:59:04.201Z,19.58
2023-03-27T08:00:14.879Z,47.45
2023-03-27T08:01:18.221Z,47.53
2023-03-27T08:02:20.774Z,45.35
2023-03-27T08:03:26.114Z,50.75
2023-03-27T08:04:28.607Z,25.08
2023-03-27T08:05:31.118Z,13.50
2023-03-27T08:06:38.643Z,11.02
2023-03-27T08:07:45.432Z,6.72
2023-03-27T08:08:48.142Z,6.57
2023-03-27T08:09:50.488Z,6.05
2023-03-27T08:10:55.479Z,5.32
2023-03-27T08:11:58.658Z,4.30
2023-03-27T08:13:01.401Z,5.60
2023-03-27T08:14:03.820Z,4.10
2023-03-27T08:15:07.250Z,4.65
2023-03-27T08:16:11.947Z,7.60
2023-03-27T08:17:16.215Z,7.93
2023-03-27T08:18:19.692Z,8.93
2023-03-27T08:19:22.140Z,7.62
2023-03-27T08:20:24.906Z,6.30
2023-03-27T08:21:26.900Z,4.43
2023-03-27T08:22:29.598Z,4.87
2023-03-27T08:23:40.644Z,4.12
2023-03-27T08:24:51.422Z,6.95
2023-03-27T08:26:00.480Z,6.70
2023-03-27T08:27:03.919Z,5.18
2023-03-27T08:28:06.260Z,5.85
2023-03-27T08:29:09.254Z,4.20
2023-03-27T08:30:16.542Z,7.65
2023-03-27T08:31:19.641Z,7.68
2023-03-27T08:32:21.843Z,6.07
2023-03-27T08:33:27.555Z,6.18
2023-03-27T08:34:30.703Z,5.37
2023-03-27T08:35:32.929Z,8.50
2023-03-27T08:36:36.004Z,6.30
2023-03-27T08:37:38.562Z,8.20
2023-03-27T08:38:43.258Z,8.45
2023-03-27T08:39:48.957Z,7.05
2023-03-27T08:40:54.004Z,6.65
2023-03-27T08:42:03.088Z,5.80
2023-03-27T08:43:09.260Z,8.82
2023-03-27T08:44:14.962Z,14.18
2023-03-27T08:45:43.654Z,8.38
2023-03-27T08:46:52.348Z,8.98
2023-03-27T08:48:04.413Z,6.82
2023-03-27T08:49:15.101Z,6.95
2023-03-27T08:50:28.204Z,6.90
2023-03-27T08:51:41.791Z,5.70
2023-03-27T08:52:46.459Z,5.97
2023-03-27T08:53:57.054Z,7.57
2023-03-27T08:55:14.533Z,5.60
2023-03-27T08:56:20.703Z,5.75
2023-03-27T08:57:24.794Z,4.30
2023-03-27T08:58:28.577Z,6.15
2023-03-27T08:59:31.686Z,5.50
2023-03-27T09:00:40.660Z,5.40
2023-03-27T09:01:56.542Z,5.87
2023-03-27T09:03:12.082Z,6.78
2023-03-27T09:04:19.953Z,6.60
2023-03-27T09:05:40.600Z,5.43
2023-03-27T09:07:09.489Z,6.55
2023-03-27T09:08:32.174Z,7.72
2023-03-27T09:09:45.155Z,5.28
2023-03-27T09:10:55.329Z,5.20
2023-03-27T09:12:11.684Z,4.80
2023-03-27T09:13:29.042Z,4.78
2023-03-27T09:14:41.163Z,6.10
2023-03-27T09:16:00.574Z,5.07
2023-03-27T09:17:16.169Z,7.90
2023-03-27T09:18:27.946Z,6.57
2023-03-27T09:19:56.918Z,4.65
2023-03-27T09:21:05.884Z,4.47
2023-03-27T09:22:20.871Z,4.43
2023-03-27T09:23:38.348Z,5.57
2023-03-27T09:24:47.241Z,3.92
2023-03-27T09:25:56.051Z,6.05
2023-03-27T09:27:20.228Z,5.55
2023-03-27T09:28:30.961Z,5.40
2023-03-27T09:29:39.540Z,7.40
2023-03-27T09:30:42.489Z,7.20
2023-03-27T09:31:52.200Z,8.32
2023-03-27T09:32:58.455Z,5.95
2023-03-27T09:34:05.693Z,9.73
2023-03-27T09:35:18.033Z,6.70
2023-03-27T09:36:21.829Z,6.95
2023-03-27T09:37:23.717Z,5.85
2023-03-27T09:38:34.962Z,7.30
2023-03-27T09:39:41.838Z,4.55
2023-03-27T09:40:49.743Z,6.47
2023-03-27T09:41:57.506Z,6.20
2023-03-27T09:43:17.615Z,5.45
2023-03-27T09:44:40.045Z,5.80
2023-03-27T09:45:44.445Z,5.53
2023-03-27T09:46:49.752Z,6.95
2023-03-27T09:48:01.388Z,8.05
2023-03-27T09:49:18.534Z,7.62
2023-03-27T09:50:32.657Z,9.82
2023-03-27T09:51:44.097Z,7.28
2023-03-27T09:52:46.904Z,7.15
2023-03-27T09:53:59.344Z,5.62
2023-03-27T09:56:13.193Z,7.87
2023-03-27T09:57:17.881Z,8.75
2023-03-27T09:58:28.538Z,7.45
2023-03-27T09:59:33.511Z,6.20
2023-03-27T10:00:36.947Z,7.68
2023-03-27T10:01:48.242Z,4.82
2023-03-27T10:03:00.535Z,5.82
2023-03-27T10:04:13.110Z,6.62
2023-03-27T10:05:20.032Z,5.78
2023-03-27T10:06:32.601Z,4.45
2023-03-27T10:07:35.190Z,6.12
2023-03-27T10:08:50.392Z,4.72
2023-03-27T10:10:15.496Z,7.55
2023-03-27T10:11:24.075Z,6.85
2023-03-27T10:12:27.244Z,6.60
2023-03-27T10:13:29.561Z,9.35
2023-03-27T10:14:40.922Z,7.45
2023-03-27T10:16:47.732Z,8.38
2023-03-27T10:17:50.375Z,5.25
2023-03-27T10:18:55.727Z,5.00
2023-03-27T10:20:14.314Z,7.68
2023-03-27T10:21:33.110Z,6.75
2023-03-27T10:22:38.589Z,7.28
2023-03-27T10:23:49.979Z,4.72
2023-03-27T10:24:53.620Z,8.43
2023-03-27T10:26:01.544Z,5.37
2023-03-27T10:27:09.736Z,7.05
2023-03-27T10:28:17.484Z,7.78
2023-03-27T10:29:32.331Z,7.82
2023-03-27T10:30:38.009Z,8.50
2023-03-27T10:31:50.359Z,7.55
2023-03-27T10:32:52.936Z,7.53
2023-03-27T10:34:01.001Z,6.82
2023-03-27T10:35:05.495Z,3.78
2023-03-27T10:36:11.924Z,4.87
2023-03-27T10:37:27.416Z,7.20
2023-03-27T10:38:33.345Z,5.45
2023-03-27T10:39:35.898Z,5.97
2023-03-27T10:40:40.619Z,7.82
2023-03-27T10:41:48.234Z,6.93
2023-03-27T10:42:50.848Z,7.80
2023-03-27T10:43:53.605Z,9.30
2023-03-27T10:44:57.602Z,6.78
2023-03-27T10:46:22.378Z,4.62
2023-03-27T10:47:30.286Z,4.43
2023-03-27T10:48:47.731Z,6.25
2023-03-27T10:50:24.233Z,7.25
2023-03-27T10:51:45.650Z,4.05
2023-03-27T10:52:55.373Z,9.43
2023-03-27T10:54:32.293Z,5.85
2023-03-27T10:55:41.475Z,5.85
2023-03-27T10:57:12.504Z,8.32
2023-03-27T10:58:39.071Z,5.40
2023-03-27T11:00:19.964Z,6.68
2023-03-27T11:01:39.462Z,5.50
2023-03-27T11:02:57.532Z,6.20
2023-03-27T11:04:08.268Z,7.90
2023-03-27T11:05:23.547Z,7.87
2023-03-27T11:06:32.453Z,8.75
2023-03-27T11:07:55.688Z,7.50
2023-03-27T11:09:20.376Z,5.65
2023-03-27T11:10:30.490Z,7.30
2023-03-27T11:11:58.536Z,6.47
2023-03-27T11:13:23.944Z,7.68
2023-03-27T11:14:35.647Z,10.57
2023-03-27T11:15:44.282Z,10.48
2023-03-27T11:16:55.662Z,7.60
2023-03-27T11:18:27.715Z,6.30
2023-03-27T11:19:43.123Z,6.05
2023-03-27T11:20:51.912Z,7.25
2023-03-27T11:22:17.186Z,8.25
2023-03-27T11:23:44.651Z,9.60
2023-03-27T11:24:57.009Z,6.43
2023-03-27T11:26:03.138Z,5.15
2023-03-27T11:27:38.429Z,9.23
2023-03-27T11:28:47.075Z,5.60
2023-03-27T11:29:59.936Z,7.20
2023-03-27T11:31:44.182Z,14.38
2023-03-27T11:33:09.664Z,8.82
2023-03-27T11:34:31.096Z,9.32
2023-03-27T11:35:43.757Z,5.97
2023-03-27T11:37:01.636Z,4.72
2023-03-27T11:38:16.446Z,4.72
2023-03-27T11:39:51.677Z,5.57
2023-03-27T11:40:53.654Z,6.70
2023-03-27T11:42:02.572Z,4.10
2023-03-27T11:43:05.161Z,4.95
2023-03-27T11:44:10.688Z,3.47
2023-03-27T11:45:19.045Z,4.22
2023-03-27T11:46:51.375Z,5.03
2023-03-27T11:48:05.586Z,3.60
2023-03-27T11:49:27.593Z,3.58
2023-03-27T11:50:34.778Z,4.22
2023-03-27T11:51:41.777Z,5.05
2023-03-27T11:52:46.799Z,5.20
2023-03-27T11:54:03.516Z,5.47
2023-03-27T11:55:41.032Z,6.62
2023-03-27T11:56:48.721Z,6.32
2023-03-27T11:58:03.255Z,7.15
2023-03-27T11:59:11.091Z,9.40
2023-03-27T12:00:34.089Z,8.82
2023-03-27T12:01:44.922Z,8.38
2023-03-27T12:03:33.684Z,7.93
2023-03-27T12:04:43.157Z,8.68
2023-03-27T12:06:02.049Z,4.85
2023-03-27T12:07:05.357Z,7.07
2023-03-27T12:08:14.136Z,6.37
2023-03-27T12:09:43.670Z,10.68
2023-03-27T12:10:51.125Z,11.85
2023-03-27T12:12:30.085Z,10.05
2023-03-27T12:14:00.533Z,9.68
2023-03-27T12:15:29.861Z,5.70
2023-03-27T12:17:12.490Z,7.05
2023-03-27T12:18:41.370Z,5.35
2023-03-27T12:19:50.857Z,5.35
2023-03-27T12:21:13.775Z,4.15
2023-03-27T12:22:58.454Z,5.82
2023-03-27T12:24:29.809Z,7.65
2023-03-27T12:26:09.906Z,11.15
2023-03-27T12:27:26.158Z,12.32
2023-03-27T12:28:49.934Z,14.70
2023-03-27T12:30:27.372Z,9.07
2023-03-27T12:32:08.759Z,8.23
2023-03-27T12:33:39.479Z,9.57
2023-03-27T12:34:50.110Z,8.65
2023-03-27T12:35:57.658Z,6.28
2023-03-27T12:37:01.852Z,7.50
2023-03-27T12:38:08.411Z,6.80
2023-03-27T12:39:26.711Z,6.82
2023-03-27T12:40:31.298Z,4.78
2023-03-27T12:41:43.131Z,5.93
2023-03-27T12:42:49.044Z,7.07
2023-03-27T12:43:59.731Z,7.70
2023-03-27T12:45:23.525Z,7.00
2023-03-27T12:46:28.888Z,6.20
2023-03-27T12:47:31.105Z,4.87
2023-03-27T12:48:48.505Z,8.00
2023-03-27T12:50:18.083Z,5.45
2023-03-27T12:51:47.533Z,6.47
2023-03-27T12:52:53.190Z,6.50
2023-03-27T12:53:56.407Z,7.82
2023-03-27T12:55:13.834Z,5.72
2023-03-27T12:56:17.122Z,6.35
2023-03-27T12:57:22.453Z,6.45
2023-03-27T12:58:35.108Z,7.65
2023-03-27T12:59:53.753Z,5.75
2023-03-27T13:01:00.189Z,4.40
2023-03-27T13:02:06.295Z,4.32
2023-03-27T13:03:51.815Z,6.10
2023-03-27T13:05:24.165Z,3.72
2023-03-27T13:06:47.139Z,4.85
2023-03-27T13:08:12.279Z,3.85
2023-03-27T13:09:35.391Z,4.12
2023-03-27T13:11:08.959Z,5.37
2023-03-27T13:12:23.085Z,5.20
2023-03-27T13:14:11.513Z,7.43
2023-03-27T13:15:53.591Z,8.35
2023-03-27T13:17:20.984Z,7.70
2023-03-27T13:18:59.044Z,8.43
2023-03-27T13:20:39.217Z,9.70
2023-03-27T13:21:51.272Z,10.15
2023-03-27T13:23:08.340Z,11.27
2023-03-27T13:24:23.644Z,11.85
2023-03-27T13:26:00.853Z,11.00
2023-03-27T13:27:28.862Z,8.95
2023-03-27T13:28:40.138Z,9.00
2023-03-27T13:29:47.979Z,9.52
2023-03-27T13:30:53.172Z,9.77
2023-03-27T13:32:16.627Z,12.10
2023-03-27T13:33:30.106Z,9.23
2023-03-27T13:34:41.588Z,9.90
2023-03-27T13:35:52.758Z,8.23
2023-03-27T13:37:07.474Z,9.20
2023-03-27T13:38:14.616Z,10.02
2023-03-27T13:39:24.946Z,7.57
2023-03-27T13:40:35.531Z,5.35
2023-03-27T13:41:44.843Z,5.62
2023-03-27T13:42:53.241Z,5.20
2023-03-27T13:43:55.908Z,7.47
2023-03-27T13:45:17.610Z,6.40
2023-03-27T13:46:29.172Z,5.62
2023-03-27T13:47:34.993Z,5.93
2023-03-27T13:49:04.933Z,5.07
2023-03-27T13:50:37.990Z,4.28
2023-03-27T13:52:22.521Z,6.80
2023-03-27T13:53:37.769Z,4.53
2023-03-27T13:55:17.682Z,3.28
2023-03-27T13:56:45.431Z,3.30
2023-03-27T13:58:09.336Z,4.00
2023-03-27T13:59:42.324Z,5.18
2023-03-27T14:01:21.049Z,2.53
2023-03-27T14:03:02.224Z,3.92
2023-03-27T14:04:36.066Z,5.35
2023-03-27T14:05:58.856Z,5.45
2023-03-27T14:07:43.344Z,3.35
2023-03-27T14:09:11.427Z,3.97
2023-03-27T14:10:23.635Z,5.62
2023-03-27T14:12:09.814Z,3.25
2023-03-27T14:13:13.846Z,6.65
2023-03-27T14:14:46.888Z,4.28
2023-03-27T14:16:31.580Z,3.28
2023-03-27T14:17:56.764Z,3.53
2023-03-27T14:19:52.977Z,2.83
2023-03-27T14:21:01.877Z,3.67
2023-03-27T14:22:32.205Z,3.80
2023-03-27T14:24:04.115Z,3.60
2023-03-27T14:25:14.293Z,5.28
2023-03-27T14:26:21.569Z,5.25
2023-03-27T14:27:24.557Z,4.87
2023-03-27T14:28:34.767Z,3.75
2023-03-27T14:29:37.148Z,4.35
2023-03-27T14:30:47.496Z,4.80
2023-03-27T14:31:51.376Z,5.68
2023-03-27T14:32:56.633Z,5.07
2023-03-27T14:34:12.660Z,4.95
2023-03-27T14:35:36.023Z,6.10
2023-03-27T14:36:50.197Z,8.40
2023-03-27T14:38:00.259Z,4.93
2023-03-27T14:39:14.729Z,5.70
2023-03-27T14:40:37.189Z,12.07
2023-03-27T14:42:05.662Z,7.40
2023-03-27T14:43:12.257Z,7.62
2023-03-27T14:44:18.025Z,6.75
2023-03-27T14:45:27.244Z,6.72
2023-03-27T14:46:30.309Z,6.62
2023-03-27T14:47:33.673Z,5.60
2023-03-27T14:48:38.831Z,6.30
2023-03-27T14:49:49.026Z,6.68
2023-03-27T14:50:58.060Z,6.68
2023-03-27T14:52:04.395Z,6.50
2023-03-27T14:53:11.072Z,6.72
2023-03-27T14:54:27.356Z,9.70
2023-03-27T14:55:34.435Z,7.78
2023-03-27T14:56:47.444Z,7.20
2023-03-27T14:57:57.751Z,8.77
2023-03-27T14:59:05.678Z,6.60
2023-03-27T15:00:16.599Z,7.45
2023-03-27T15:01:18.949Z,6.05
2023-03-27T15:02:34.919Z,6.87
2023-03-27T15:03:38.576Z,8.68
2023-03-27T15:04:41.071Z,7.57
2023-03-27T15:05:54.090Z,8.50
2023-03-27T15:07:35.779Z,23.92
2023-03-27T15:08:38.971Z,23.75
2023-03-27T15:09:41.982Z,85.32
2023-03-27T15:10:50.991Z,18.00
2023-03-27T15:11:57.764Z,9.07
2023-03-27T15:13:00.023Z,6.28
2023-03-27T15:14:02.525Z,13.23
2023-03-27T15:15:17.081Z,7.03
2023-03-27T15:16:23.044Z,9.32
2023-03-27T15:17:27.907Z,8.63
2023-03-27T15:18:36.067Z,25.30
2023-03-27T15:19:45.602Z,8.75
2023-03-27T15:20:50.447Z,11.00
2023-03-27T15:22:30.903Z,9.38
2023-03-27T15:24:01.983Z,10.93
2023-03-27T15:25:17.637Z,10.77
2023-03-27T15:26:28.748Z,13.55
2023-03-27T15:29:13.723Z,14.23
2023-03-27T15:30:34.117Z,5.55
2023-03-27T15:31:37.093Z,7.15
2023-03-27T15:32:50.270Z,7.85
2023-03-27T15:33:57.403Z,6.32
2023-03-27T15:35:03.491Z,6.65
2023-03-27T15:36:11.154Z,7.37
2023-03-27T15:37:28.683Z,10.10